Time;durP1;ratioP1;P1;durP2;ratioP2;P2;SDS_P1;SDS_P2;PMS_P1;PMS_P2;Temp;Humidity;BMP_temperature;BMP_pressure;BME280_temperature;BME280_humidity;BME280_pressure;Samples;Min_cycle;Max_cycle;Signal;HPM_P1;HPM_P2
2022/01/12 00:01:12;;;;;;;97.68;37.72;;;3.00;99.90;;;;;;5057658;28;20063;-72
2022/01/12 00:03:38;;;;;;;88.95;35.75;;;3.00;99.90;;;;;;5041018;28;20047;-75
2022/01/12 00:06:04;;;;;;;93.68;36.72;;;3.00;99.90;;;;;;5057701;28;20048;-72
2022/01/12 00:08:31;;;;;;;93.50;38.15;;;3.00;99.90;;;;;;5056975;28;20486;-72
2022/01/12 00:10:58;;;;;;;99.88;37.90;;;3.10;99.90;;;;;;5040992;28;20529;-72
2022/01/12 00:13:24;;;;;;;99.35;37.95;;;3.10;99.90;;;;;;5057969;28;20128;-72
2022/01/12 00:15:51;;;;;;;96.47;37.10;;;3.10;99.90;;;;;;5040414;28;20119;-72
2022/01/12 00:18:17;;;;;;;115.72;39.67;;;3.10;99.90;;;;;;5057451;28;20084;-75
2022/01/12 00:20:43;;;;;;;90.70;37.08;;;3.10;99.90;;;;;;5053000;28;20064;-74
2022/01/12 00:23:09;;;;;;;113.03;40.63;;;3.10;99.90;;;;;;5039386;28;20059;-72
2022/01/12 00:25:56;;;;;;;103.20;40.20;;;3.10;99.90;;;;;;5057934;28;20055;-72
2022/01/12 00:34:03;;;;;;;110.20;38.97;;;3.10;99.90;;;;;;5057287;28;20143;-73
2022/01/12 00:36:30;;;;;;;135.00;42.38;;;3.10;99.90;;;;;;5040614;28;20040;-74
2022/01/12 00:38:57;;;;;;;112.38;40.03;;;3.10;99.90;;;;;;5040313;28;20449;-72
2022/01/12 00:41:23;;;;;;;107.85;38.97;;;3.10;99.90;;;;;;5057012;28;20047;-74
2022/01/12 00:43:56;;;;;;;139.15;42.55;;;3.10;99.90;;;;;;5040117;28;20048;-72
2022/01/12 00:46:22;;;;;;;111.15;39.92;;;3.10;99.90;;;;;;5057147;28;20173;-73
2022/01/12 00:48:47;;;;;;;124.38;40.00;;;3.10;99.90;;;;;;5040337;28;20131;-73
2022/01/12 00:51:13;;;;;;;118.68;41.17;;;3.10;99.90;;;;;;5039784;28;20033;-73
2022/01/12 00:53:40;;;;;;;124.40;42.33;;;3.20;99.90;;;;;;5052409;28;20044;-72
2022/01/12 00:56:06;;;;;;;113.15;40.75;;;3.10;99.90;;;;;;5020147;28;20048;-72
2022/01/12 00:58:33;;;;;;;135.60;43.28;;;3.10;99.90;;;;;;5036388;28;20127;-72
2022/01/12 01:00:59;;;;;;;105.35;39.70;;;3.10;99.90;;;;;;5019977;28;20399;-72
2022/01/12 01:03:24;;;;;;;91.93;38.67;;;3.20;99.90;;;;;;5020382;28;20475;-74
2022/01/12 01:05:50;;;;;;;118.93;40.53;;;3.20;99.90;;;;;;5020023;28;20135;-73
2022/01/12 01:08:17;;;;;;;104.20;40.50;;;3.20;99.90;;;;;;5036563;28;20041;-73
2022/01/12 01:10:46;;;;;;;110.88;38.65;;;3.20;99.90;;;;;;5036471;28;20041;-73
2022/01/12 01:13:19;;;;;;;106.88;38.75;;;3.20;99.90;;;;;;5036188;28;20209;-72
2022/01/12 01:26:35;;;;;;;99.35;40.05;;;3.20;99.90;;;;;;5056015;28;20491;-72
2022/01/12 01:29:04;;;;;;;114.10;41.10;;;3.20;99.90;;;;;;5038831;28;20040;-73
2022/01/12 01:31:33;;;;;;;101.88;40.28;;;3.20;99.90;;;;;;5055878;28;20051;-73
2022/01/12 01:34:06;;;;;;;;;;;3.20;99.90;;;;;;5056094;28;20577;-72
2022/01/12 01:36:34;;;;;;;123.65;42.53;;;3.20;99.90;;;;;;5055809;28;20408;-73
2022/01/12 01:38:59;;;;;;;110.30;40.55;;;3.20;99.90;;;;;;5055708;28;20088;-73
2022/01/12 01:41:25;;;;;;;92.80;39.05;;;3.20;99.90;;;;;;5039318;28;20072;-72
2022/01/12 01:54:50;;;;;;;108.70;41.80;;;3.30;99.90;;;;;;5055266;28;20052;-73
2022/01/12 01:57:16;;;;;;;103.30;41.92;;;3.30;99.90;;;;;;5056463;28;20037;-72
2022/01/12 01:59:42;;;;;;;139.27;45.40;;;3.30;99.90;;;;;;5055895;28;20055;-72
2022/01/12 02:02:07;;;;;;;118.63;41.90;;;3.30;99.90;;;;;;5055514;28;20040;-73
2022/01/12 02:04:33;;;;;;;112.65;42.33;;;3.30;99.90;;;;;;5055491;28;20040;-72
2022/01/12 02:06:59;;;;;;;120.38;42.20;;;3.30;99.90;;;;;;5055638;28;20076;-74
2022/01/12 02:09:26;;;;;;;122.57;42.85;;;3.30;99.90;;;;;;5055329;28;20040;-73
2022/01/12 02:11:52;;;;;;;114.20;42.38;;;3.30;99.90;;;;;;5055094;28;20041;-72
2022/01/12 02:14:19;;;;;;;130.30;43.13;;;3.30;99.90;;;;;;5055802;28;20036;-75
2022/01/12 02:16:55;;;;;;;132.32;44.47;;;3.30;99.90;;;;;;5038345;28;20086;-73
2022/01/12 02:35:56;;;;;;;142.35;44.63;;;3.40;99.90;;;;;;5059179;28;20086;-72
2022/01/12 02:40:51;;;;;;;148.77;44.53;;;3.40;99.90;;;;;;5058583;28;20459;-74
2022/01/12 02:50:35;;;;;;;155.60;46.28;;;3.40;99.90;;;;;;5059144;28;20087;-73
2022/01/12 02:53:37;;;;;;;213.07;51.03;;;3.40;99.90;;;;;;5058841;28;20474;-73
2022/01/12 02:54:19;;;;;;;216.90;49.78;;;3.50;99.90;;;;;;5059276;28;20040;-72
2022/01/12 02:56:44;;;;;;;204.32;47.28;;;3.50;99.90;;;;;;5058918;28;20044;-73
2022/01/12 02:59:10;;;;;;;169.25;48.15;;;3.50;99.90;;;;;;5042327;28;20048;-73
2022/01/12 03:02:19;;;;;;;241.75;52.83;;;3.50;99.90;;;;;;5041299;28;20056;-72
2022/01/12 03:04:35;;;;;;;179.23;49.53;;;3.50;99.90;;;;;;5058148;28;20079;-72
2022/01/12 03:07:07;;;;;;;290.95;54.00;;;3.50;99.90;;;;;;5042219;28;20062;-72
2022/01/12 03:09:32;;;;;;;163.07;48.10;;;3.50;99.90;;;;;;5058612;28;20123;-73
2022/01/12 03:12:00;;;;;;;250.13;51.67;;;3.50;99.90;;;;;;5058260;28;20463;-73
2022/01/12 03:14:25;;;;;;;436.58;64.20;;;3.50;99.90;;;;;;5058422;28;20076;-73
2022/01/12 03:16:51;;;;;;;340.05;55.67;;;3.50;99.90;;;;;;5058718;28;20076;-73
2022/01/12 03:19:17;;;;;;;262.92;51.90;;;3.50;99.90;;;;;;5058532;28;20040;-74
2022/01/12 03:21:42;;;;;;;252.40;50.83;;;3.50;99.90;;;;;;5058374;28;20047;-74
2022/01/12 03:24:08;;;;;;;295.05;51.90;;;3.50;99.90;;;;;;5042086;28;20043;-75
2022/01/12 03:26:35;;;;;;;302.05;53.85;;;3.60;99.90;;;;;;5058069;28;20391;-72
2022/01/12 03:29:01;;;;;;;235.13;51.13;;;3.60;99.90;;;;;;5059021;28;20045;-72
2022/01/12 03:31:30;;;;;;;398.60;58.35;;;3.60;99.90;;;;;;5058409;28;20128;-74
2022/01/12 03:34:23;;;;;;;509.73;69.03;;;3.60;99.90;;;;;;5058434;28;20041;-72
2022/01/12 03:39:33;;;;;;;246.50;51.53;;;3.60;99.90;;;;;;5057899;28;20048;-73
2022/01/12 03:41:59;;;;;;;467.55;62.30;;;3.60;99.90;;;;;;5057474;28;20045;-73
2022/01/12 03:44:24;;;;;;;219.32;51.95;;;3.60;99.90;;;;;;5041672;28;20044;-73
2022/01/12 03:46:52;;;;;;;531.70;67.80;;;3.60;99.90;;;;;;5058096;28;20048;-73
2022/01/12 03:49:20;;;;;;;406.10;60.33;;;3.60;99.90;;;;;;5041372;28;20040;-72
2022/01/12 03:51:46;;;;;;;455.48;62.50;;;3.60;99.90;;;;;;5053973;28;20395;-74
2022/01/12 03:54:12;;;;;;;465.55;63.95;;;3.60;99.90;;;;;;5038021;28;20476;-74
2022/01/12 03:56:38;;;;;;;420.67;60.30;;;3.60;99.90;;;;;;5037835;28;20037;-75
2022/01/12 03:59:04;;;;;;;305.83;54.85;;;3.60;99.90;;;;;;5038136;28;20037;-73
2022/01/12 04:01:30;;;;;;;524.92;66.28;;;3.60;99.90;;;;;;5037583;28;20459;-74
2022/01/12 04:04:02;;;;;;;246.95;51.63;;;3.60;99.90;;;;;;5037552;28;20530;-72
2022/01/12 04:09:12;;;;;;;421.25;58.72;;;3.70;99.90;;;;;;5037881;28;20148;-73
2022/01/12 04:11:39;;;;;;;356.42;57.00;;;3.70;99.90;;;;;;5020997;28;20454;-75
2022/01/12 04:14:04;;;;;;;426.25;60.95;;;3.70;99.90;;;;;;5037516;28;20383;-74
2022/01/12 04:16:31;;;;;;;530.80;67.53;;;3.70;99.90;;;;;;5037486;28;20041;-72
2022/01/12 04:18:56;;;;;;;362.55;56.80;;;3.70;99.90;;;;;;5037501;28;20045;-73
2022/01/12 04:21:29;;;;;;;431.08;58.15;;;3.70;99.90;;;;;;5051102;28;20043;-74
2022/01/12 04:23:57;;;;;;;291.80;54.72;;;3.70;99.90;;;;;;5057521;28;20083;-72
2022/01/12 04:26:24;;;;;;;327.83;56.67;;;3.70;99.90;;;;;;5057584;28;20044;-73
2022/01/12 04:28:50;;;;;;;387.48;59.55;;;3.70;99.90;;;;;;5040601;28;20085;-73
2022/01/12 04:31:15;;;;;;;300.45;54.78;;;3.70;99.90;;;;;;5052749;28;20045;-73
2022/01/12 04:33:42;;;;;;;340.65;55.70;;;3.70;99.90;;;;;;5049829;28;20079;-72
2022/01/12 04:36:09;;;;;;;317.05;55.80;;;3.70;99.90;;;;;;5037252;28;20048;-72
2022/01/12 04:38:37;;;;;;;347.10;55.17;;;3.70;99.90;;;;;;5037250;28;20075;-75
2022/01/12 04:41:06;;;;;;;320.42;54.78;;;3.70;99.90;;;;;;5020817;28;20072;-72
2022/01/12 04:43:32;;;;;;;302.70;51.95;;;3.70;99.90;;;;;;5020521;28;20044;-72
2022/01/12 04:48:36;;;;;;;540.22;65.22;;;3.80;99.90;;;;;;5037254;28;20076;-72
2022/01/12 04:51:02;;;;;;;559.63;66.75;;;3.70;99.90;;;;;;5043927;28;20041;-75
2022/01/12 04:53:29;;;;;;;503.45;65.32;;;3.70;99.90;;;;;;5036133;28;20051;-72
2022/01/12 04:55:54;;;;;;;462.98;61.63;;;3.70;99.90;;;;;;5020022;28;20127;-72
2022/01/12 04:58:20;;;;;;;339.02;56.55;;;3.70;99.90;;;;;;5036178;28;20158;-72
2022/01/12 05:00:47;;;;;;;305.02;54.83;;;3.70;99.90;;;;;;5020184;28;20495;-75
2022/01/12 05:13:54;;;;;;;276.02;51.58;;;3.70;99.90;;;;;;5036883;28;20045;-72
2022/01/12 05:16:21;;;;;;;275.00;54.95;;;3.80;99.90;;;;;;5036569;28;20041;-74
2022/01/12 05:18:48;;;;;;;281.83;52.75;;;3.70;99.90;;;;;;5019719;28;20072;-72
2022/01/12 05:21:17;;;;;;;330.90;56.58;;;3.70;99.90;;;;;;5029577;28;20124;-73
2022/01/12 05:23:42;;;;;;;267.35;54.33;;;3.70;99.90;;;;;;5020579;28;20051;-72
2022/01/12 05:26:08;;;;;;;254.45;53.10;;;3.70;99.90;;;;;;5036790;28;20041;-72
2022/01/12 05:28:35;;;;;;;363.45;57.30;;;3.70;99.90;;;;;;5036186;28;20056;-76
2022/01/12 05:31:02;;;;;;;296.30;54.50;;;3.70;99.90;;;;;;5019909;28;20126;-72
2022/01/12 05:33:28;;;;;;;232.98;52.35;;;3.70;99.90;;;;;;5019740;28;20041;-72
2022/01/12 05:35:56;;;;;;;302.70;56.00;;;3.70;99.90;;;;;;5035565;28;20037;-75
2022/01/12 05:38:23;;;;;;;341.63;55.40;;;3.70;99.90;;;;;;5036370;28;20087;-75
2022/01/12 05:40:53;;;;;;;292.10;52.28;;;3.60;99.90;;;;;;5036238;28;20072;-74
2022/01/12 05:43:29;;;;;;;262.80;49.50;;;3.60;99.90;;;;;;5019540;28;20037;-72
2022/01/12 05:45:58;;;;;;;213.82;46.78;;;3.60;99.90;;;;;;5019488;28;20044;-72
2022/01/12 05:51:08;;;;;;;330.23;52.30;;;3.60;99.90;;;;;;5049564;28;20044;-75
2022/01/12 05:53:34;;;;;;;229.20;47.50;;;3.50;99.90;;;;;;5055705;28;20044;-73
2022/01/12 05:56:00;;;;;;;276.08;49.60;;;3.50;99.90;;;;;;5039060;28;20047;-74
2022/01/12 05:58:25;;;;;;;226.30;46.75;;;3.50;99.90;;;;;;5055607;28;20390;-73
2022/01/12 06:00:51;;;;;;;284.38;50.05;;;3.40;99.90;;;;;;5055183;28;20048;-75
2022/01/12 06:03:17;;;;;;;226.18;45.72;;;3.40;99.90;;;;;;5055495;28;20039;-73
2022/01/12 06:05:42;;;;;;;237.23;47.33;;;3.40;99.90;;;;;;5055626;28;20036;-72
2022/01/12 06:08:08;;;;;;;268.67;48.50;;;3.50;99.90;;;;;;5039260;28;20044;-72
2022/01/12 06:10:33;;;;;;;199.30;44.58;;;3.40;99.90;;;;;;5055709;28;20029;-72
2022/01/12 06:12:59;;;;;;;192.57;45.15;;;3.50;99.90;;;;;;5055748;28;20151;-73
2022/01/12 06:15:25;;;;;;;200.82;44.65;;;3.50;99.90;;;;;;5055319;28;20098;-73
2022/01/12 06:17:51;;;;;;;210.43;46.60;;;3.50;99.90;;;;;;5055549;28;20106;-73
2022/01/12 06:20:17;;;;;;;199.05;44.60;;;3.50;99.90;;;;;;5051861;28;20045;-72
2022/01/12 06:22:43;;;;;;;214.82;47.20;;;3.60;99.90;;;;;;5046952;28;20049;-73
2022/01/12 06:25:13;;;;;;;206.85;44.97;;;3.60;99.90;;;;;;5055710;28;20036;-73
2022/01/12 06:27:49;;;;;;;178.40;44.22;;;3.60;99.90;;;;;;5055547;28;20120;-73
2022/01/12 06:32:58;;;;;;;179.73;43.63;;;3.60;99.90;;;;;;5055331;28;20483;-72
2022/01/12 06:35:25;;;;;;;182.63;43.45;;;3.60;99.90;;;;;;5055242;28;20040;-73
2022/01/12 06:37:51;;;;;;;148.38;41.85;;;3.60;99.90;;;;;;5055386;28;20132;-72
2022/01/12 06:40:18;;;;;;;205.13;58.80;;;3.60;99.90;;;;;;5055304;28;20043;-72
2022/01/12 06:42:45;;;;;;;192.35;49.80;;;3.60;99.90;;;;;;5038273;28;20044;-74
2022/01/12 06:45:10;;;;;;;189.35;42.28;;;3.70;99.90;;;;;;5055972;28;20068;-74
2022/01/12 06:47:37;;;;;;;209.63;43.40;;;3.70;99.90;;;;;;5055461;28;20379;-73
2022/01/12 06:50:04;;;;;;;188.75;41.20;;;3.70;99.90;;;;;;5054718;28;20482;-75
2022/01/12 06:52:30;;;;;;;169.40;42.40;;;3.70;99.90;;;;;;5038956;28;20036;-75
2022/01/12 06:54:55;;;;;;;177.93;41.13;;;3.70;99.90;;;;;;5054636;28;20038;-73
2022/01/12 06:57:21;;;;;;;175.52;42.90;;;3.70;99.90;;;;;;5054511;28;20437;-73
2022/01/12 06:59:47;;;;;;;158.82;39.28;;;3.70;99.90;;;;;;5055851;28;20101;-73
2022/01/12 07:02:12;;;;;;;158.10;39.42;;;3.70;99.90;;;;;;5054014;28;20501;-76
2022/01/12 07:04:38;;;;;;;174.52;41.38;;;3.70;99.90;;;;;;5055527;28;20487;-73
2022/01/12 07:07:04;;;;;;;166.80;41.38;;;3.70;99.90;;;;;;5054991;28;20382;-72
2022/01/12 07:09:30;;;;;;;148.80;39.85;;;3.70;99.90;;;;;;5054578;28;20040;-72
2022/01/12 07:11:56;;;;;;;161.70;40.60;;;3.70;99.90;;;;;;5054648;28;20055;-73
2022/01/12 07:14:21;;;;;;;162.30;39.88;;;3.70;99.90;;;;;;5055750;28;20378;-72
2022/01/12 07:16:47;;;;;;;167.48;41.97;;;3.70;99.90;;;;;;5054775;28;20093;-72
2022/01/12 07:19:13;;;;;;;175.98;41.63;;;3.70;99.90;;;;;;5042206;28;20045;-72
2022/01/12 07:21:39;;;;;;;157.68;41.85;;;3.70;99.90;;;;;;5058207;28;20040;-73
2022/01/12 07:24:05;;;;;;;146.43;40.83;;;3.70;99.90;;;;;;5058325;28;20044;-73
2022/01/12 07:26:31;;;;;;;147.15;39.72;;;3.70;99.90;;;;;;5041540;28;20044;-73
2022/01/12 07:28:57;;;;;;;169.85;40.88;;;3.70;99.90;;;;;;5058466;28;20447;-75
2022/01/12 07:31:23;;;;;;;147.57;37.70;;;3.70;99.90;;;;;;5058262;28;20178;-73
2022/01/12 07:33:54;;;;;;;126.90;36.28;;;3.70;99.90;;;;;;5058408;28;20044;-75
2022/01/12 07:36:20;;;;;;;143.13;37.45;;;3.70;99.90;;;;;;5041286;28;20032;-75
2022/01/12 07:38:49;;;;;;;129.45;36.38;;;3.70;99.90;;;;;;5041653;28;20079;-75
2022/01/12 07:41:15;;;;;;;157.32;38.67;;;3.70;99.90;;;;;;5040821;28;20049;-73
2022/01/12 07:43:41;;;;;;;122.45;35.00;;;3.70;99.90;;;;;;5037560;28;20572;-73
2022/01/12 07:46:07;;;;;;;160.98;37.67;;;3.70;99.90;;;;;;5021916;28;20057;-73
2022/01/12 07:48:32;;;;;;;111.25;36.10;;;3.70;99.90;;;;;;5037888;28;20044;-75
2022/01/12 07:50:58;;;;;;;147.63;38.13;;;3.70;99.90;;;;;;5037924;28;20037;-73
2022/01/12 07:53:24;;;;;;;123.47;35.25;;;3.70;99.90;;;;;;5038129;28;20087;-73
2022/01/12 07:55:50;;;;;;;133.27;35.25;;;3.70;99.90;;;;;;5037614;28;20099;-73
2022/01/12 07:58:15;;;;;;;129.25;34.00;;;3.70;99.90;;;;;;5037989;28;20045;-73
2022/01/12 08:00:41;;;;;;;103.20;29.63;;;3.70;99.90;;;;;;5038108;28;20045;-72
2022/01/12 08:03:07;;;;;;;117.85;32.65;;;3.70;99.90;;;;;;5037340;28;20194;-75
2022/01/12 08:05:32;;;;;;;118.35;31.95;;;3.70;99.90;;;;;;5037914;28;20052;-74
2022/01/12 08:07:59;;;;;;;126.20;32.22;;;3.80;99.90;;;;;;5037581;28;20052;-73
2022/01/12 08:10:25;;;;;;;153.82;35.40;;;3.70;99.90;;;;;;5048519;28;20048;-73
2022/01/12 08:12:50;;;;;;;119.78;32.47;;;3.80;99.90;;;;;;5056860;28;20118;-73
2022/01/12 08:15:16;;;;;;;108.65;31.10;;;3.70;99.90;;;;;;5057444;28;20068;-73
2022/01/12 08:17:42;;;;;;;123.93;33.58;;;3.70;99.90;;;;;;5057563;28;20567;-73
2022/01/12 08:20:16;;;;;;;122.88;31.92;;;3.70;99.90;;;;;;5056888;28;20478;-73
2022/01/12 08:22:42;;;;;;;128.23;33.97;;;3.70;99.90;;;;;;5057652;28;20083;-73
2022/01/12 08:25:09;;;;;;;120.47;31.55;;;3.70;99.90;;;;;;5057035;28;20079;-73
2022/01/12 08:27:35;;;;;;;114.72;30.85;;;3.70;99.90;;;;;;5057717;28;20094;-73
2022/01/12 08:30:02;;;;;;;112.50;31.77;;;3.60;99.90;;;;;;5057172;28;20055;-73
2022/01/12 08:32:29;;;;;;;134.15;33.45;;;3.60;99.90;;;;;;5040165;28;20071;-73
2022/01/12 08:34:55;;;;;;;123.63;31.42;;;3.60;99.90;;;;;;5056969;28;20048;-75
2022/01/12 08:37:22;;;;;;;132.80;32.22;;;3.50;99.90;;;;;;5057116;28;20489;-74
2022/01/12 08:39:47;;;;;;;126.40;34.35;;;3.60;99.90;;;;;;5058011;28;20132;-75
2022/01/12 08:42:13;;;;;;;140.00;32.72;;;3.60;99.90;;;;;;5040824;28;20124;-76
2022/01/12 08:44:39;;;;;;;143.23;33.13;;;3.50;99.90;;;;;;5056863;28;20364;-74
2022/01/12 08:47:05;;;;;;;121.40;32.05;;;3.50;99.90;;;;;;5056837;28;20044;-74
2022/01/12 08:49:31;;;;;;;123.72;31.63;;;3.50;99.90;;;;;;5056433;28;20094;-74
2022/01/12 08:51:57;;;;;;;128.60;32.83;;;3.50;99.90;;;;;;5057049;28;20032;-74
2022/01/12 08:54:22;;;;;;;122.70;34.08;;;3.50;99.90;;;;;;5057008;28;20104;-75
2022/01/12 08:56:48;;;;;;;118.40;33.10;;;3.50;99.90;;;;;;5040250;28;20094;-74
2022/01/12 08:59:14;;;;;;;149.38;33.92;;;3.60;99.90;;;;;;5056649;28;20045;-74
2022/01/12 09:01:40;;;;;;;129.32;33.70;;;3.60;99.90;;;;;;5055752;28;20048;-74
2022/01/12 09:04:05;;;;;;;117.97;33.30;;;3.60;99.90;;;;;;5056263;28;20497;-74
2022/01/12 09:06:31;;;;;;;144.07;35.28;;;3.60;99.90;;;;;;5052732;28;20037;-73
2022/01/12 09:08:57;;;;;;;159.25;35.72;;;3.60;99.90;;;;;;5039174;28;20129;-75
2022/01/12 09:11:23;;;;;;;150.15;34.17;;;3.60;99.90;;;;;;5056861;28;20036;-73
2022/01/12 09:13:48;;;;;;;159.02;33.40;;;3.70;99.90;;;;;;5056453;28;20047;-74
2022/01/12 09:16:14;;;;;;;123.07;31.33;;;3.70;99.90;;;;;;5039677;28;20435;-75
2022/01/12 09:18:40;;;;;;;167.93;32.97;;;3.70;99.90;;;;;;5055963;28;20514;-75
2022/01/12 09:21:06;;;;;;;148.68;31.73;;;3.70;99.90;;;;;;5056841;28;20099;-74
2022/01/12 09:23:32;;;;;;;130.07;31.42;;;3.70;99.90;;;;;;5039648;28;20040;-74
2022/01/12 09:25:59;;;;;;;122.97;30.60;;;3.80;99.90;;;;;;5039994;28;20044;-76
2022/01/12 09:28:24;;;;;;;128.95;30.60;;;3.80;99.90;;;;;;5056084;28;20508;-74
2022/01/12 09:30:53;;;;;;;105.68;28.40;;;3.90;99.90;;;;;;5055882;28;20041;-74
2022/01/12 09:33:20;;;;;;;130.33;30.13;;;3.90;99.90;;;;;;5055690;28;20039;-74
2022/01/12 09:35:49;;;;;;;146.05;31.30;;;4.00;99.90;;;;;;5039564;28;20036;-74
2022/01/12 09:38:15;;;;;;;117.35;29.15;;;4.00;99.90;;;;;;5056188;28;20044;-74
2022/01/12 09:40:40;;;;;;;141.65;30.23;;;4.00;99.90;;;;;;5055739;28;20041;-74
2022/01/12 09:43:06;;;;;;;142.75;30.70;;;4.10;99.90;;;;;;5055796;28;20067;-74
2022/01/12 09:45:32;;;;;;;124.30;30.10;;;4.10;99.90;;;;;;5055831;28;20044;-74
2022/01/12 09:47:59;;;;;;;142.40;30.65;;;4.10;99.90;;;;;;5055504;28;20127;-75
2022/01/12 09:50:26;;;;;;;127.40;29.48;;;4.10;99.90;;;;;;5038897;28;20046;-74
2022/01/12 09:52:52;;;;;;;146.82;30.42;;;4.20;99.90;;;;;;5055611;28;20131;-75
2022/01/12 09:55:19;;;;;;;128.05;28.55;;;4.20;99.90;;;;;;5055861;28;20036;-75
2022/01/12 09:57:45;;;;;;;150.05;30.23;;;4.20;99.90;;;;;;5055665;28;20083;-75
2022/01/12 10:00:13;;;;;;;121.43;28.33;;;4.20;99.90;;;;;;5055230;28;20127;-74
2022/01/12 10:02:42;;;;;;;143.73;28.45;;;4.20;99.90;;;;;;5052436;28;20053;-75
2022/01/12 10:05:10;;;;;;;134.55;28.17;;;4.30;99.90;;;;;;5039644;28;20048;-74
2022/01/12 10:07:36;;;;;;;114.40;27.05;;;4.40;99.90;;;;;;5056095;28;20076;-75
2022/01/12 10:10:06;;;;;;;117.55;25.83;;;4.40;99.90;;;;;;5039002;28;20048;-76
2022/01/12 10:12:32;;;;;;;94.55;22.40;;;4.40;99.90;;;;;;5055415;28;20490;-74
2022/01/12 10:15:01;;;;;;;104.60;24.08;;;4.50;99.90;;;;;;5038634;28;20459;-75
2022/01/12 10:17:35;;;;;;;102.30;21.75;;;4.50;99.90;;;;;;5055513;28;20395;-77
2022/01/12 10:20:22;;;;;;;78.40;19.75;;;4.60;99.90;;;;;;5055472;28;20100;-75
2022/01/12 10:22:57;;;;;;;86.88;21.27;;;4.70;99.90;;;;;;5055360;28;20051;-75
2022/01/12 10:25:25;;;;;;;81.15;19.67;;;4.70;99.90;;;;;;5055165;28;20067;-76
2022/01/12 10:27:51;;;;;;;73.20;16.98;;;4.80;99.90;;;;;;5039503;28;20036;-76
2022/01/12 10:30:23;;;;;;;67.88;17.02;;;4.80;99.90;;;;;;5055481;28;20433;-75
2022/01/12 10:33:05;;;;;;;60.90;15.55;;;4.90;99.90;;;;;;5055435;28;20536;-75
2022/01/12 10:35:34;;;;;;;55.97;15.60;;;5.00;99.90;;;;;;5055270;28;20075;-75
2022/01/12 10:38:07;;;;;;;54.50;15.30;;;5.00;99.90;;;;;;5038329;28;20045;-74
2022/01/12 10:40:50;;;;;;;58.13;13.93;;;5.10;99.90;;;;;;5055606;28;20060;-74
2022/01/12 10:43:35;;;;;;;53.05;13.90;;;5.10;99.90;;;;;;5055377;28;20045;-76
2022/01/12 10:46:05;;;;;;;49.95;13.32;;;5.20;99.90;;;;;;5038558;28;20052;-74
2022/01/12 10:48:51;;;;;;;54.92;13.40;;;5.20;99.90;;;;;;5055309;28;20467;-74
2022/01/12 10:51:23;;;;;;;48.97;12.60;;;5.20;99.90;;;;;;5056300;28;20041;-76
2022/01/12 10:53:51;;;;;;;46.28;12.25;;;5.30;99.90;;;;;;5059308;28;20092;-74
2022/01/12 10:56:21;;;;;;;51.13;11.95;;;5.30;99.90;;;;;;5042320;28;20040;-83
2022/01/12 10:58:50;;;;;;;46.75;10.68;;;5.30;99.90;;;;;;5041609;28;20044;-76
2022/01/12 11:01:19;;;;;;;47.80;11.73;;;5.40;99.90;;;;;;5059647;28;20063;-76
2022/01/12 11:03:45;;;;;;;44.83;10.57;;;5.40;99.90;;;;;;5058831;28;20387;-74
2022/01/12 11:06:12;;;;;;;46.00;10.35;;;5.40;99.90;;;;;;5059191;28;20052;-74
2022/01/12 11:08:39;;;;;;;44.45;9.98;;;5.50;99.90;;;;;;5042188;28;20041;-74
2022/01/12 11:11:06;;;;;;;37.67;8.93;;;5.50;99.90;;;;;;5040979;28;20135;-74
2022/01/12 11:13:32;;;;;;;51.90;11.07;;;5.50;99.90;;;;;;5058019;28;20086;-72
2022/01/12 11:15:59;;;;;;;40.45;8.60;;;5.50;99.90;;;;;;5057934;28;20048;-73
2022/01/12 11:18:34;;;;;;;44.80;8.98;;;5.50;99.90;;;;;;5057223;28;20049;-74
2022/01/12 11:21:08;;;;;;;31.13;8.27;;;5.50;99.90;;;;;;5057004;28;20037;-74
2022/01/12 11:23:40;;;;;;;45.40;8.90;;;5.50;99.90;;;;;;5057381;28;20429;-74
2022/01/12 11:26:16;;;;;;;46.13;8.93;;;5.60;99.90;;;;;;5056866;28;20040;-75
2022/01/12 11:28:44;;;;;;;44.10;10.00;;;5.60;99.90;;;;;;5057330;28;20071;-73
2022/01/12 11:31:11;;;;;;;42.33;9.98;;;5.60;99.90;;;;;;5041090;28;20062;-76
2022/01/12 11:33:40;;;;;;;42.55;10.48;;;5.60;99.90;;;;;;5056673;28;20090;-75
2022/01/12 11:36:22;;;;;;;47.65;10.65;;;5.60;99.90;;;;;;5040889;28;20130;-75
2022/01/12 11:38:59;;;;;;;34.50;10.32;;;5.60;99.90;;;;;;5057450;28;20045;-75
2022/01/12 11:41:31;;;;;;;48.00;10.90;;;5.60;99.90;;;;;;5040986;28;20055;-77
2022/01/12 11:44:16;;;;;;;39.78;11.27;;;5.70;99.90;;;;;;5057322;28;20131;-75
2022/01/12 11:46:48;;;;;;;41.17;11.55;;;5.70;99.90;;;;;;5056993;28;20081;-74
2022/01/12 11:49:28;;;;;;;50.17;12.00;;;5.70;99.90;;;;;;5025244;28;20097;-73
2022/01/12 11:51:55;;;;;;;44.45;12.00;;;5.70;99.90;;;;;;5053758;28;20049;-74
2022/01/12 11:54:29;;;;;;;46.08;12.25;;;5.70;99.90;;;;;;5051103;28;20102;-75
2022/01/12 11:56:57;;;;;;;50.30;12.18;;;5.70;99.90;;;;;;5039650;28;20032;-74
2022/01/12 11:59:26;;;;;;;45.20;12.57;;;5.70;99.90;;;;;;5039077;28;20430;-75
2022/01/12 12:02:14;;;;;;;44.35;11.80;;;5.70;99.90;;;;;;5056544;28;20052;-75
2022/01/12 12:04:55;;;;;;;41.15;10.98;;;5.80;99.90;;;;;;5056495;28;20036;-75
2022/01/12 12:07:22;;;;;;;44.80;10.75;;;5.70;99.90;;;;;;5056864;28;20048;-75
2022/01/12 12:09:53;;;;;;;52.35;12.27;;;5.70;99.90;;;;;;5038886;28;20044;-75
2022/01/12 12:12:26;;;;;;;53.30;11.65;;;5.80;99.90;;;;;;5039925;28;20044;-75
2022/01/12 12:14:54;;;;;;;45.03;12.48;;;5.70;99.90;;;;;;5038484;28;20048;-76
2022/01/12 12:17:23;;;;;;;54.00;12.88;;;5.70;99.90;;;;;;5039889;28;20040;-74
2022/01/12 12:19:53;;;;;;;43.38;12.23;;;5.80;99.90;;;;;;5056074;28;20041;-74
2022/01/12 12:22:20;;;;;;;39.85;11.45;;;5.70;99.90;;;;;;5040010;28;20555;-74
2022/01/12 12:24:53;;;;;;;50.10;13.18;;;5.70;99.90;;;;;;5055980;28;20040;-75
2022/01/12 12:27:21;;;;;;;46.15;12.35;;;5.80;99.90;;;;;;5056506;28;20046;-74
2022/01/12 12:29:48;;;;;;;44.20;12.40;;;5.80;99.90;;;;;;5039878;28;20036;-76
2022/01/12 12:32:15;;;;;;;42.13;11.35;;;5.80;99.90;;;;;;5056017;28;20481;-74
2022/01/12 12:34:43;;;;;;;42.08;11.60;;;5.80;99.90;;;;;;5056401;28;20047;-74
2022/01/12 12:37:16;;;;;;;37.90;12.20;;;5.80;99.90;;;;;;5039515;28;20509;-74
2022/01/12 12:39:44;;;;;;;40.45;10.90;;;5.80;99.90;;;;;;5039177;28;20051;-74
2022/01/12 12:42:19;;;;;;;49.88;12.52;;;5.90;99.90;;;;;;5039298;28;20040;-74
2022/01/12 12:44:47;;;;;;;45.78;12.35;;;5.90;99.90;;;;;;5055903;28;20068;-74
2022/01/12 12:47:18;;;;;;;39.90;11.07;;;5.90;99.90;;;;;;5039398;28;20040;-74
2022/01/12 12:49:50;;;;;;;46.33;12.25;;;5.80;99.90;;;;;;5056447;28;20044;-76
2022/01/12 12:52:34;;;;;;;39.30;11.68;;;5.90;99.90;;;;;;5056660;28;20383;-74
2022/01/12 12:55:04;;;;;;;36.65;10.75;;;5.90;99.90;;;;;;5052574;28;20041;-74
2022/01/12 12:57:30;;;;;;;41.05;11.70;;;5.90;99.90;;;;;;5039568;28;20040;-74
2022/01/12 13:00:14;;;;;;;39.88;11.30;;;5.80;99.90;;;;;;5056560;28;20044;-74
2022/01/12 13:02:42;;;;;;;38.10;11.27;;;5.90;99.90;;;;;;5056199;28;20475;-74
2022/01/12 13:05:15;;;;;;;43.58;11.75;;;5.90;99.90;;;;;;5056738;28;20041;-75
2022/01/12 13:07:42;;;;;;;44.20;10.70;;;5.90;99.90;;;;;;5056126;28;20491;-74
2022/01/12 13:10:14;;;;;;;35.83;10.75;;;6.00;99.90;;;;;;5054533;28;20033;-74
2022/01/12 13:12:45;;;;;;;46.95;10.80;;;6.00;99.90;;;;;;5056509;28;20033;-74
2022/01/12 13:15:21;;;;;;;46.95;11.80;;;5.90;99.90;;;;;;5055129;28;20036;-74
2022/01/12 13:17:47;;;;;;;55.97;13.32;;;5.90;99.90;;;;;;5039839;28;20048;-74
2022/01/12 13:22:51;;;;;;;65.82;13.07;;;6.00;99.90;;;;;;5055688;28;20082;-74
2022/01/12 13:25:18;;;;;;;42.15;11.32;;;5.90;99.90;;;;;;5055910;28;20052;-73
2022/01/12 13:27:47;;;;;;;42.22;12.40;;;5.90;99.90;;;;;;5056402;28;20049;-73
2022/01/12 13:30:32;;;;;;;48.33;13.50;;;6.00;99.90;;;;;;5056243;28;20037;-73
2022/01/12 13:33:00;;;;;;;51.83;12.93;;;6.00;99.90;;;;;;5055899;28;20049;-74
2022/01/12 13:35:35;;;;;;;47.85;13.70;;;6.00;99.90;;;;;;5039630;28;20055;-75
2022/01/12 13:38:05;;;;;;;50.90;12.93;;;6.00;99.90;;;;;;5038509;28;20049;-74
2022/01/12 13:40:36;;;;;;;43.60;12.38;;;6.00;99.90;;;;;;5038869;28;20032;-75
2022/01/12 13:43:03;;;;;;;44.03;12.18;;;6.00;99.90;;;;;;5055608;28;20177;-74
2022/01/12 13:45:41;;;;;;;39.22;11.63;;;6.10;99.90;;;;;;5056542;28;20112;-74
2022/01/12 13:48:15;;;;;;;41.72;11.18;;;6.10;99.90;;;;;;5039378;28;20044;-74
2022/01/12 13:50:52;;;;;;;35.58;10.68;;;6.00;99.90;;;;;;5039129;28;20079;-73
2022/01/12 13:53:18;;;;;;;36.33;11.20;;;6.00;99.90;;;;;;5054429;28;20048;-74
2022/01/12 13:55:54;;;;;;;33.60;10.25;;;5.90;99.90;;;;;;5055610;28;20078;-73